M/V Oriole — WDE6982 — position and weather

sailwx.info

Track history (hours):
 
Tides and Currents Weather Stations Pressure Air Temp Water Temp Dewpoint Dewpoint Depression Visibility Wind Speed Wind Dir Waves Ship Positions

M/V Oriole

Owner: NATIVE SON INC., ST. THOMAS, VI. More information available from US FCC via Universal Licensing System and Coast Guard Vessel Documentation Center.

Last reported at 2017-Jul-16 19:33 UTC. Time now 2017-Aug-18 05:07 UTC.
Position N 18°24' W 064°34'.
Warning: this ship's position is 32 days out of date.

Length 25 m.

Type: Passenger vessel. MMSI: 366755670.

Date/timePositionNaut miles runAvg speedWind from/ knotsBaromVisibWave heightAir tempDewpointWater temp
2017-Jul-16 19:33N 18°24' W 064°34'1 7.1
2017-Jul-16 19:27N 18°24' W 064°35'2 0.0
2017-Jul-14 18:57N 18°24' W 064°37'511.4
2017-Jul-14 18:30N 18°23' W 064°42'8 1.9
2017-Jul-14 14:27N 18°20' W 064°49'817.1
2017-Jul-14 14:00N 18°23' W 064°42'5 0.2
2017-Jul-13 14:44N 18°24' W 064°37'418.5
2017-Jul-13 14:30N 18°23' W 064°41'911.5
2017-Jul-13 13:42N 18°20' W 064°50'210.0
2017-Jul-13 13:28N 18°20' W 064°48'3 7.0
2017-Jul-13 13:00N 18°22' W 064°45'1 2.9
2017-Jul-13 12:29N 18°23' W 064°44'6 8.9
2017-Jul-13 11:47N 18°20' W 064°50'2 7.2
2017-Jul-13 11:30N 18°20' W 064°48'612.6
2017-Jul-13 11:00N 18°23' W 064°42'3 0.1
2017-Jul-11 22:32N 18°23' W 064°39'122.9
2017-Jul-11 22:30N 18°23' W 064°39'510.8
2017-Jul-11 22:00N 18°23' W 064°45'5 4.5
2017-Jul-11 20:51N 18°20' W 064°50'2 5.1
2017-Jul-11 20:27N 18°20' W 064°48'613.0
2017-Jul-11 19:58N 18°23' W 064°42'612.5
2017-Jul-11 19:30N 18°21' W 064°48'2 1.0
2017-Jul-11 17:12N 18°20' W 064°50'2 8.2
2017-Jul-11 16:55N 18°20' W 064°48'610.8
2017-Jul-11 16:21N 18°23' W 064°42'410.4
2017-Jul-11 16:00N 18°22' W 064°46'5 2.0
2017-Jul-11 13:29N 18°20' W 064°50'2 4.8
2017-Jul-11 12:59N 18°20' W 064°48'612.7
2017-Jul-11 12:30N 18°23' W 064°42'612.1
2017-Jul-11 11:59N 18°21' W 064°48'1 2.4
2017-Jul-11 11:30N 18°20' W 064°49'2 4.2
2017-Jul-11 11:00N 18°21' W 064°47'5 8.4
2017-Jul-11 10:23N 18°23' W 064°42'4 0.3
2017-Jul-10 21:57N 18°23' W 064°38'714.5
2017-Jul-10 21:30N 18°23' W 064°45'5 7.2
2017-Jul-10 20:46N 18°20' W 064°50'2 4.7
2017-Jul-10 20:20N 18°20' W 064°48'513.7
2017-Jul-10 19:59N 18°23' W 064°44'0 0.9
2017-Jul-10 19:30N 18°23' W 064°44'6 2.9
2017-Jul-10 17:20N 18°20' W 064°50'2 5.8
2017-Jul-10 16:58N 18°20' W 064°48'612.9
2017-Jul-10 16:30N 18°23' W 064°42'611.6
2017-Jul-10 16:00N 18°21' W 064°48'2 0.7
2017-Jul-10 13:19N 18°20' W 064°50'2 5.2
2017-Jul-10 12:57N 18°20' W 064°48'613.0
2017-Jul-10 12:30N 18°23' W 064°43'713.4
2017-Jul-10 11:59N 18°21' W 064°49'1 3.0
2017-Jul-10 11:30N 18°20' W 064°48'0 0.7
2017-Jul-10 11:00N 18°20' W 064°48'611.4
2017-Jul-10 10:27N 18°23' W 064°42'4 0.3
2017-Jul-09 22:28N 18°24' W 064°38'4 8.6
2017-Jul-09 22:00N 18°23' W 064°42'8 8.8
2017-Jul-09 21:03N 18°20' W 064°50'123.4
2017-Jul-09 21:00N 18°20' W 064°49'1 2.6
2017-Jul-09 20:30N 18°20' W 064°48'611.4
2017-Jul-09 19:57N 18°23' W 064°42'510.8
2017-Jul-09 19:30N 18°22' W 064°47'3 1.7
2017-Jul-09 17:31N 18°20' W 064°50'024.3
2017-Jul-09 17:30N 18°20' W 064°50'3 5.2
2017-Jul-09 16:59N 18°21' W 064°47'5 9.7
2017-Jul-09 16:28N 18°23' W 064°42'715.1
2017-Jul-09 16:00N 18°20' W 064°49'1 0.4
2017-Jul-09 13:43N 18°20' W 064°50'2 7.1
2017-Jul-09 13:26N 18°20' W 064°48'1 2.2
2017-Jul-09 13:00N 18°21' W 064°48'5 9.8
2017-Jul-09 12:30N 18°23' W 064°43'812.6
2017-Jul-09 11:54N 18°20' W 064°50'2 5.4
2017-Jul-09 11:28N 18°20' W 064°48'2 3.6
2017-Jul-09 11:00N 18°22' W 064°47'5 9.8
2017-Jul-09 10:30N 18°23' W 064°42'4 0.4
2017-Jul-08 22:12N 18°24' W 064°38'523.4
2017-Jul-08 22:00N 18°23' W 064°43'611.8
2017-Jul-08 21:30N 18°21' W 064°48'2 3.3
2017-Jul-08 20:55N 18°20' W 064°50'2 4.8
2017-Jul-08 20:27N 18°20' W 064°48'611.6
2017-Jul-08 19:55N 18°23' W 064°42'3 8.0
2017-Jul-08 19:30N 18°22' W 064°45'5 2.5
2017-Jul-08 17:37N 18°20' W 064°50'2 9.5
2017-Jul-08 17:25N 18°20' W 064°48'0 0.1
2017-Jul-08 17:00N 18°20' W 064°48'612.4
2017-Jul-08 16:30N 18°23' W 064°42'510.7
2017-Jul-08 16:00N 18°21' W 064°47'3 1.1
2017-Jul-08 13:28N 18°20' W 064°50'2 4.2
2017-Jul-08 12:59N 18°20' W 064°48'612.9
2017-Jul-08 12:30N 18°23' W 064°42'7 9.7
2017-Jul-08 11:46N 18°20' W 064°49'1 3.8
2017-Jul-08 11:28N 18°20' W 064°48'3 6.4
2017-Jul-08 11:00N 18°22' W 064°46'4 7.5
2017-Jul-08 10:28N 18°23' W 064°42'4 0.4
2017-Jul-07 22:45N 18°24' W 064°37'518.7
2017-Jul-07 22:30N 18°23' W 064°42'3 5.4
2017-Jul-07 22:01N 18°23' W 064°45'5 7.0
2017-Jul-07 21:16N 18°20' W 064°50'2 6.6
2017-Jul-07 20:59N 18°20' W 064°48'0 0.0
2017-Jul-07 20:29N 18°20' W 064°48'611.9
2017-Jul-07 19:58N 18°23' W 064°42'510.9
2017-Jul-07 19:30N 18°21' W 064°47'3 1.4
2017-Jul-07 17:19N 18°20' W 064°50'2 6.8
2017-Jul-07 17:00N 18°20' W 064°48'611.8
2017-Jul-07 16:29N 18°23' W 064°42'611.5
2017-Jul-07 16:00N 18°21' W 064°48'3 1.2
2017-Jul-07 13:51N 18°20' W 064°50'2 6.7
2017-Jul-07 13:30N 18°20' W 064°48'612.1
2017-Jul-07 13:00N 18°23' W 064°42'810.9
2017-Jul-07 12:16N 18°20' W 064°50'2 6.3
2017-Jul-07 11:55N 18°20' W 064°48'0 0.0
2017-Jul-07 11:25N 18°20' W 064°48'6 8.5
2017-Jul-07 10:42N 18°23' W 064°42'1 5.6
2017-Jul-07 10:28N 18°23' W 064°41'3 0.3
2017-Jul-06 22:24N 18°24' W 064°38'  
Track history (hours):
 
Tides and Currents Weather Stations Pressure Air Temp Water Temp Dewpoint Dewpoint Depression Visibility Wind Speed Wind Dir Waves Ship Positions

M/V Oriole

Owner: NATIVE SON INC., ST. THOMAS, VI. More information available from US FCC via Universal Licensing System and Coast Guard Vessel Documentation Center.

Last reported at 2017-Jul-16 19:33 UTC. Time now 2017-Aug-18 05:07 UTC.
Position N 18°24' W 064°34'.
Warning: this ship's position is 32 days out of date.

Length 25 m.

Type: Passenger vessel. MMSI: 366755670.

Date/timePositionNaut miles runAvg speedWind from/ knotsBaromVisibWave heightAir tempDewpointWater temp
2017-Jul-16 19:33N 18°24' W 064°34'1 7.1
2017-Jul-16 19:27N 18°24' W 064°35'2 0.0
2017-Jul-14 18:57N 18°24' W 064°37'511.4
2017-Jul-14 18:30N 18°23' W 064°42'8 1.9
2017-Jul-14 14:27N 18°20' W 064°49'817.1
2017-Jul-14 14:00N 18°23' W 064°42'5 0.2
2017-Jul-13 14:44N 18°24' W 064°37'418.5
2017-Jul-13 14:30N 18°23' W 064°41'911.5
2017-Jul-13 13:42N 18°20' W 064°50'210.0
2017-Jul-13 13:28N 18°20' W 064°48'3 7.0
2017-Jul-13 13:00N 18°22' W 064°45'1 2.9
2017-Jul-13 12:29N 18°23' W 064°44'6 8.9
2017-Jul-13 11:47N 18°20' W 064°50'2 7.2
2017-Jul-13 11:30N 18°20' W 064°48'612.6
2017-Jul-13 11:00N 18°23' W 064°42'3 0.1
2017-Jul-11 22:32N 18°23' W 064°39'122.9
2017-Jul-11 22:30N 18°23' W 064°39'510.8
2017-Jul-11 22:00N 18°23' W 064°45'5 4.5
2017-Jul-11 20:51N 18°20' W 064°50'2 5.1
2017-Jul-11 20:27N 18°20' W 064°48'613.0
2017-Jul-11 19:58N 18°23' W 064°42'612.5
2017-Jul-11 19:30N 18°21' W 064°48'2 1.0
2017-Jul-11 17:12N 18°20' W 064°50'2 8.2
2017-Jul-11 16:55N 18°20' W 064°48'610.8
2017-Jul-11 16:21N 18°23' W 064°42'410.4
2017-Jul-11 16:00N 18°22' W 064°46'5 2.0
2017-Jul-11 13:29N 18°20' W 064°50'2 4.8
2017-Jul-11 12:59N 18°20' W 064°48'612.7
2017-Jul-11 12:30N 18°23' W 064°42'612.1
2017-Jul-11 11:59N 18°21' W 064°48'1 2.4
2017-Jul-11 11:30N 18°20' W 064°49'2 4.2
2017-Jul-11 11:00N 18°21' W 064°47'5 8.4
2017-Jul-11 10:23N 18°23' W 064°42'4 0.3
2017-Jul-10 21:57N 18°23' W 064°38'714.5
2017-Jul-10 21:30N 18°23' W 064°45'5 7.2
2017-Jul-10 20:46N 18°20' W 064°50'2 4.7
2017-Jul-10 20:20N 18°20' W 064°48'513.7
2017-Jul-10 19:59N 18°23' W 064°44'0 0.9
2017-Jul-10 19:30N 18°23' W 064°44'6 2.9
2017-Jul-10 17:20N 18°20' W 064°50'2 5.8
2017-Jul-10 16:58N 18°20' W 064°48'612.9
2017-Jul-10 16:30N 18°23' W 064°42'611.6
2017-Jul-10 16:00N 18°21' W 064°48'2 0.7
2017-Jul-10 13:19N 18°20' W 064°50'2 5.2
2017-Jul-10 12:57N 18°20' W 064°48'613.0
2017-Jul-10 12:30N 18°23' W 064°43'713.4
2017-Jul-10 11:59N 18°21' W 064°49'1 3.0
2017-Jul-10 11:30N 18°20' W 064°48'0 0.7
2017-Jul-10 11:00N 18°20' W 064°48'611.4
2017-Jul-10 10:27N 18°23' W 064°42'4 0.3
2017-Jul-09 22:28N 18°24' W 064°38'4 8.6
2017-Jul-09 22:00N 18°23' W 064°42'8 8.8
2017-Jul-09 21:03N 18°20' W 064°50'123.4
2017-Jul-09 21:00N 18°20' W 064°49'1 2.6
2017-Jul-09 20:30N 18°20' W 064°48'611.4
2017-Jul-09 19:57N 18°23' W 064°42'510.8
2017-Jul-09 19:30N 18°22' W 064°47'3 1.7
2017-Jul-09 17:31N 18°20' W 064°50'024.3
2017-Jul-09 17:30N 18°20' W 064°50'3 5.2
2017-Jul-09 16:59N 18°21' W 064°47'5 9.7
2017-Jul-09 16:28N 18°23' W 064°42'715.1
2017-Jul-09 16:00N 18°20' W 064°49'1 0.4
2017-Jul-09 13:43N 18°20' W 064°50'2 7.1
2017-Jul-09 13:26N 18°20' W 064°48'1 2.2
2017-Jul-09 13:00N 18°21' W 064°48'5 9.8
2017-Jul-09 12:30N 18°23' W 064°43'812.6
2017-Jul-09 11:54N 18°20' W 064°50'2 5.4
2017-Jul-09 11:28N 18°20' W 064°48'2 3.6
2017-Jul-09 11:00N 18°22' W 064°47'5 9.8
2017-Jul-09 10:30N 18°23' W 064°42'4 0.4
2017-Jul-08 22:12N 18°24' W 064°38'523.4
2017-Jul-08 22:00N 18°23' W 064°43'611.8
2017-Jul-08 21:30N 18°21' W 064°48'2 3.3
2017-Jul-08 20:55N 18°20' W 064°50'2 4.8
2017-Jul-08 20:27N 18°20' W 064°48'611.6
2017-Jul-08 19:55N 18°23' W 064°42'3 8.0
2017-Jul-08 19:30N 18°22' W 064°45'5 2.5
2017-Jul-08 17:37N 18°20' W 064°50'2 9.5
2017-Jul-08 17:25N 18°20' W 064°48'0 0.1
2017-Jul-08 17:00N 18°20' W 064°48'612.4
2017-Jul-08 16:30N 18°23' W 064°42'510.7
2017-Jul-08 16:00N 18°21' W 064°47'3 1.1
2017-Jul-08 13:28N 18°20' W 064°50'2 4.2
2017-Jul-08 12:59N 18°20' W 064°48'612.9
2017-Jul-08 12:30N 18°23' W 064°42'7 9.7
2017-Jul-08 11:46N 18°20' W 064°49'1 3.8
2017-Jul-08 11:28N 18°20' W 064°48'3 6.4
2017-Jul-08 11:00N 18°22' W 064°46'4 7.5
2017-Jul-08 10:28N 18°23' W 064°42'4 0.4
2017-Jul-07 22:45N 18°24' W 064°37'518.7
2017-Jul-07 22:30N 18°23' W 064°42'3 5.4
2017-Jul-07 22:01N 18°23' W 064°45'5 7.0
2017-Jul-07 21:16N 18°20' W 064°50'2 6.6
2017-Jul-07 20:59N 18°20' W 064°48'0 0.0
2017-Jul-07 20:29N 18°20' W 064°48'611.9
2017-Jul-07 19:58N 18°23' W 064°42'510.9
2017-Jul-07 19:30N 18°21' W 064°47'3 1.4
2017-Jul-07 17:19N 18°20' W 064°50'2 6.8
2017-Jul-07 17:00N 18°20' W 064°48'611.8
2017-Jul-07 16:29N 18°23' W 064°42'611.5
2017-Jul-07 16:00N 18°21' W 064°48'3 1.2
2017-Jul-07 13:51N 18°20' W 064°50'2 6.7
2017-Jul-07 13:30N 18°20' W 064°48'612.1
2017-Jul-07 13:00N 18°23' W 064°42'810.9
2017-Jul-07 12:16N 18°20' W 064°50'2 6.3
2017-Jul-07 11:55N 18°20' W 064°48'0 0.0
2017-Jul-07 11:25N 18°20' W 064°48'6 8.5
2017-Jul-07 10:42N 18°23' W 064°42'1 5.6
2017-Jul-07 10:28N 18°23' W 064°41'3 0.3
2017-Jul-06 22:24N 18°24' W 064°38'  

Dump ship's entire track history